createdAt,value
2023-04-02T00:01:40.370Z,99.05
2023-04-02T00:04:22.652Z,99.05
2023-04-02T00:06:54.413Z,99.04
2023-04-02T00:09:25.031Z,98.98
2023-04-02T00:11:56.731Z,98.95
2023-04-02T00:14:35.226Z,98.86
2023-04-02T00:17:05.802Z,98.60
2023-04-02T00:19:54.795Z,98.31
2023-04-02T00:22:28.531Z,97.95
2023-04-02T00:24:56.668Z,97.63
2023-04-02T00:27:23.780Z,97.27
2023-04-02T00:29:58.580Z,97.07
2023-04-02T00:32:29.821Z,96.56
2023-04-02T00:34:58.202Z,96.50
2023-04-02T00:37:30.212Z,96.21
2023-04-02T00:40:06.345Z,95.89
2023-04-02T00:42:35.917Z,95.73
2023-04-02T00:45:03.118Z,95.20
2023-04-02T00:47:40.076Z,94.99
2023-04-02T00:50:19.577Z,95.20
2023-04-02T00:52:51.163Z,95.37
2023-04-02T00:55:24.176Z,95.25
2023-04-02T00:57:52.337Z,95.15
2023-04-02T01:00:34.466Z,95.00
2023-04-02T01:03:16.634Z,94.62
2023-04-02T01:05:46.215Z,94.60
2023-04-02T01:08:21.712Z,94.29
2023-04-02T01:10:55.510Z,94.51
2023-04-02T01:13:34.074Z,94.62
2023-04-02T01:16:37.014Z,94.52
2023-04-02T01:19:28.771Z,94.42
2023-04-02T01:22:02.025Z,94.16
2023-04-02T01:24:33.753Z,93.85
2023-04-02T01:27:02.446Z,93.42
2023-04-02T01:29:30.736Z,93.55
2023-04-02T01:32:07.784Z,93.62
2023-04-02T01:34:35.180Z,93.54
2023-04-02T01:37:07.645Z,93.46
2023-04-02T01:39:46.395Z,93.28
2023-04-02T01:42:37.835Z,92.91
2023-04-02T01:45:09.445Z,92.97
2023-04-02T01:47:36.081Z,92.98
2023-04-02T01:50:37.372Z,93.01
2023-04-02T01:53:07.319Z,92.91
2023-04-02T01:55:56.090Z,92.65
2023-04-02T01:58:27.407Z,92.92
2023-04-02T02:01:04.193Z,92.79
2023-04-02T02:03:31.353Z,92.88
2023-04-02T02:05:59.283Z,92.82
2023-04-02T02:08:39.384Z,93.06
2023-04-02T02:11:07.825Z,92.66
2023-04-02T02:13:34.661Z,92.72
2023-04-02T02:16:04.687Z,92.59
2023-04-02T02:18:32.230Z,92.76
2023-04-02T02:21:01.777Z,92.15
2023-04-02T02:23:30.078Z,92.46
2023-04-02T02:25:56.908Z,92.66
2023-04-02T02:28:34.385Z,92.74
2023-04-02T02:31:10.692Z,92.33
2023-04-02T02:33:42.628Z,92.16
2023-04-02T02:36:33.969Z,92.30
2023-04-02T02:39:29.621Z,92.34
2023-04-02T02:42:02.732Z,92.07
2023-04-02T02:44:33.557Z,91.60
2023-04-02T02:47:12.715Z,91.59
2023-04-02T02:49:50.748Z,91.78
2023-04-02T02:52:25.247Z,91.67
2023-04-02T02:55:00.826Z,91.87
2023-04-02T02:57:32.092Z,91.89
2023-04-02T03:00:01.121Z,91.97
2023-04-02T03:02:29.258Z,91.72
2023-04-02T03:04:58.978Z,91.64
2023-04-02T03:07:27.513Z,91.69
2023-04-02T03:10:10.867Z,91.57
2023-04-02T03:12:53.167Z,91.90
2023-04-02T03:15:49.086Z,91.61
2023-04-02T03:18:26.476Z,91.67
2023-04-02T03:20:59.770Z,92.17
2023-04-02T03:23:37.591Z,92.21
2023-04-02T03:26:19.241Z,92.21
2023-04-02T03:28:54.089Z,92.17
2023-04-02T03:31:28.029Z,91.80
2023-04-02T03:34:01.692Z,92.04
2023-04-02T03:36:38.615Z,91.92
2023-04-02T03:42:28.477Z,92.21
2023-04-02T03:45:22.753Z,92.04
2023-04-02T03:48:08.567Z,91.96
2023-04-02T03:50:41.439Z,92.31
2023-04-02T03:53:09.403Z,92.30
2023-04-02T03:55:38.168Z,92.38
2023-04-02T03:58:20.704Z,92.19
2023-04-02T04:00:54.777Z,92.33
2023-04-02T04:03:33.141Z,92.24
2023-04-02T04:06:06.237Z,91.86
2023-04-02T04:08:54.897Z,91.31
2023-04-02T04:11:33.652Z,91.84
2023-04-02T04:14:06.380Z,91.80
2023-04-02T04:16:43.406Z,91.50
2023-04-02T04:19:25.080Z,91.26
2023-04-02T04:21:57.165Z,91.40
2023-04-02T04:24:25.953Z,91.29
2023-04-02T04:27:04.504Z,91.16
2023-04-02T04:29:57.976Z,91.48
2023-04-02T04:32:33.890Z,91.62
2023-04-02T04:35:32.426Z,91.78
2023-04-02T04:38:12.254Z,91.99
2023-04-02T04:40:50.516Z,91.31
2023-04-02T04:43:25.230Z,91.57
2023-04-02T04:45:59.012Z,91.25
2023-04-02T04:48:46.392Z,91.27
2023-04-02T04:51:48.125Z,91.05
2023-04-02T04:54:16.266Z,90.91
2023-04-02T04:56:50.205Z,90.82
2023-04-02T04:59:33.561Z,90.99
2023-04-02T05:02:03.421Z,90.99
2023-04-02T05:04:37.441Z,90.97
2023-04-02T05:07:32.167Z,90.78
2023-04-02T05:10:18.084Z,90.96
2023-04-02T05:12:52.001Z,90.74
2023-04-02T05:15:43.662Z,90.33
2023-04-02T05:18:32.485Z,90.75
2023-04-02T05:21:47.944Z,90.58
2023-04-02T05:24:35.397Z,90.20
2023-04-02T05:27:12.835Z,90.63
2023-04-02T05:29:45.012Z,90.46
2023-04-02T05:32:21.153Z,90.72
2023-04-02T05:34:53.363Z,90.65
2023-04-02T05:37:23.829Z,90.60
2023-04-02T05:39:58.472Z,90.64
2023-04-02T05:42:28.416Z,90.34
2023-04-02T05:45:17.117Z,90.51
2023-04-02T05:47:46.090Z,90.69
2023-04-02T05:50:30.924Z,90.52
2023-04-02T05:53:44.097Z,90.40
2023-04-02T05:56:16.717Z,90.89
2023-04-02T05:58:49.549Z,91.17
2023-04-02T06:01:30.515Z,91.13
2023-04-02T06:04:16.988Z,90.87
2023-04-02T06:07:07.300Z,90.91
2023-04-02T06:09:39.599Z,90.94
2023-04-02T06:12:42.618Z,91.27
2023-04-02T06:15:15.006Z,91.31
2023-04-02T06:18:14.785Z,91.54
2023-04-02T06:20:41.398Z,91.41
2023-04-02T06:23:12.063Z,91.14
2023-04-02T06:25:43.182Z,90.98
2023-04-02T06:28:16.240Z,90.88
2023-04-02T06:36:20.929Z,91.23
2023-04-02T06:38:49.246Z,91.40
2023-04-02T06:41:21.741Z,91.50
2023-04-02T06:43:57.492Z,91.30
2023-04-02T06:46:46.984Z,91.06
2023-04-02T06:49:23.814Z,90.92
2023-04-02T06:51:54.424Z,91.22
2023-04-02T06:54:21.647Z,91.01
2023-04-02T06:56:51.698Z,91.04
2023-04-02T06:59:19.255Z,90.32
2023-04-02T07:01:57.729Z,90.80
2023-04-02T07:04:24.990Z,90.36
2023-04-02T07:06:51.568Z,90.07
2023-04-02T07:09:19.232Z,89.89
2023-04-02T07:11:46.530Z,89.86
2023-04-02T07:14:14.076Z,89.99
2023-04-02T07:16:42.649Z,89.74
2023-04-02T07:19:20.303Z,89.82
2023-04-02T07:21:47.694Z,89.60
2023-04-02T07:24:14.581Z,89.68
2023-04-02T07:26:41.998Z,89.61
2023-04-02T07:29:17.966Z,89.39
2023-04-02T07:31:46.714Z,89.63
2023-04-02T07:34:13.576Z,89.19
2023-04-02T07:36:40.539Z,89.68
2023-04-02T07:39:07.746Z,89.83
2023-04-02T07:41:34.373Z,89.53
2023-04-02T07:44:01.127Z,89.42
2023-04-02T07:46:27.801Z,89.48
2023-04-02T07:48:54.388Z,89.54
2023-04-02T07:51:26.227Z,89.39
2023-04-02T07:53:56.355Z,89.08
2023-04-02T07:56:24.677Z,89.28
2023-04-02T07:58:51.629Z,89.19
2023-04-02T08:01:21.277Z,89.26
2023-04-02T08:03:48.368Z,89.24
2023-04-02T08:06:15.268Z,88.71
2023-04-02T08:08:42.401Z,88.99
2023-04-02T08:11:09.996Z,88.43
2023-04-02T08:13:36.750Z,88.60
2023-04-02T08:16:04.909Z,88.54
2023-04-02T08:18:31.601Z,88.61
2023-04-02T08:20:59.105Z,89.12
2023-04-02T08:23:27.173Z,88.47
2023-04-02T08:25:54.315Z,88.26
2023-04-02T08:28:21.640Z,88.02
2023-04-02T08:30:51.666Z,87.73
2023-04-02T08:33:19.222Z,87.93
2023-04-02T08:35:50.277Z,87.92
2023-04-02T08:38:19.151Z,87.24
2023-04-02T08:40:49.898Z,87.50
2023-04-02T08:43:54.201Z,86.92
2023-04-02T08:46:28.327Z,87.42
2023-04-02T08:48:59.404Z,87.74
2023-04-02T08:51:29.103Z,87.58
2023-04-02T08:54:02.145Z,87.13
2023-04-02T08:56:43.699Z,87.17
2023-04-02T08:59:20.704Z,87.07
2023-04-02T09:01:53.339Z,87.13
2023-04-02T09:04:27.154Z,86.75
2023-04-02T09:06:57.427Z,86.35
2023-04-02T09:09:25.199Z,86.39
2023-04-02T09:11:53.812Z,85.92
2023-04-02T09:14:27.540Z,85.51
2023-04-02T09:16:58.861Z,86.14
2023-04-02T09:19:32.828Z,86.56
2023-04-02T09:22:17.593Z,86.41
2023-04-02T09:24:44.213Z,86.18
2023-04-02T09:27:20.265Z,85.26
2023-04-02T09:29:49.814Z,85.14
2023-04-02T09:32:37.347Z,85.28
2023-04-02T09:35:26.577Z,84.89
2023-04-02T09:38:17.436Z,85.76
2023-04-02T09:40:48.473Z,84.95
2023-04-02T09:43:21.366Z,84.66
2023-04-02T09:46:18.951Z,84.67
2023-04-02T09:48:55.009Z,85.13
2023-04-02T09:51:24.801Z,84.95
2023-04-02T09:54:16.403Z,84.75
2023-04-02T09:57:01.793Z,84.43
2023-04-02T09:59:28.792Z,84.54
2023-04-02T10:01:55.571Z,85.28
2023-04-02T10:04:31.582Z,84.89
2023-04-02T10:06:58.360Z,84.54
2023-04-02T10:09:31.110Z,84.16
2023-04-02T10:11:59.890Z,84.72
2023-04-02T10:14:39.258Z,84.35
2023-04-02T10:17:25.029Z,84.71
2023-04-02T10:19:59.334Z,83.53
2023-04-02T10:22:29.599Z,83.72
2023-04-02T10:24:59.822Z,83.05
2023-04-02T10:27:57.361Z,83.14
2023-04-02T10:30:29.879Z,82.51
2023-04-02T10:33:15.845Z,82.36
2023-04-02T10:35:59.676Z,82.41
2023-04-02T10:38:44.317Z,81.99
2023-04-02T10:41:45.684Z,82.44
2023-04-02T10:44:27.580Z,82.43
2023-04-02T10:47:00.184Z,83.00
2023-04-02T10:50:03.569Z,83.16
2023-04-02T10:52:56.124Z,82.01
2023-04-02T10:55:29.686Z,81.66
2023-04-02T10:58:00.886Z,81.61
2023-04-02T11:00:31.515Z,81.13
2023-04-02T11:03:07.569Z,81.73
2023-04-02T11:05:49.373Z,81.16
2023-04-02T11:08:34.737Z,81.15
2023-04-02T11:11:08.115Z,80.69
2023-04-02T11:13:50.535Z,81.23
2023-04-02T11:16:17.393Z,81.28
2023-04-02T11:19:18.972Z,81.94
2023-04-02T11:22:01.499Z,82.17
2023-04-02T11:24:30.394Z,81.63
2023-04-02T11:27:12.314Z,80.65
2023-04-02T11:29:56.066Z,80.47
2023-04-02T11:32:29.255Z,80.45
2023-04-02T11:35:06.588Z,80.87
2023-04-02T11:37:45.510Z,81.59
2023-04-02T11:40:12.307Z,80.73
2023-04-02T11:42:43.656Z,79.74
2023-04-02T11:45:26.443Z,79.60
2023-04-02T11:48:02.500Z,79.14
2023-04-02T11:50:34.019Z,79.49
2023-04-02T11:53:13.338Z,79.36
2023-04-02T11:55:44.609Z,78.77
2023-04-02T11:58:32.212Z,79.82
2023-04-02T12:01:18.376Z,79.40
2023-04-02T12:04:03.875Z,79.90
2023-04-02T12:06:55.443Z,80.45
2023-04-02T12:09:46.652Z,79.28
2023-04-02T12:12:42.656Z,79.14
2023-04-02T12:15:38.658Z,79.15
2023-04-02T12:18:19.367Z,78.95
2023-04-02T12:20:49.182Z,79.15
2023-04-02T12:23:38.393Z,78.57
2023-04-02T12:26:09.667Z,79.03
2023-04-02T12:31:25.441Z,79.73
2023-04-02T12:33:53.110Z,78.66
2023-04-02T12:36:24.682Z,78.96
2023-04-02T12:38:54.498Z,78.66
2023-04-02T12:47:04.801Z,78.57
2023-04-02T12:49:43.409Z,78.66
2023-04-02T12:52:15.936Z,78.61
2023-04-02T12:55:01.709Z,77.64
2023-04-02T12:57:29.204Z,78.01
2023-04-02T13:00:01.819Z,77.86
2023-04-02T13:02:32.139Z,78.27
2023-04-02T13:07:47.327Z,76.77
2023-04-02T13:10:26.063Z,76.28
2023-04-02T13:13:00.897Z,75.83
2023-04-02T13:15:34.697Z,75.91
2023-04-02T13:18:06.215Z,76.29
2023-04-02T13:20:34.571Z,76.45
2023-04-02T13:23:22.589Z,76.69
2023-04-02T13:25:49.589Z,75.52
2023-04-02T13:28:16.198Z,75.11
2023-04-02T13:30:42.938Z,74.62
2023-04-02T13:33:09.601Z,74.64
2023-04-02T13:35:36.765Z,75.29
2023-04-02T13:38:04.194Z,74.95
2023-04-02T13:40:31.311Z,74.16
2023-04-02T13:42:58.088Z,73.96
2023-04-02T13:45:28.406Z,74.00
2023-04-02T13:47:57.407Z,74.03
2023-04-02T13:50:24.617Z,74.03
2023-04-02T13:52:51.632Z,73.95
2023-04-02T13:55:22.549Z,74.12
2023-04-02T13:57:50.268Z,73.67
2023-04-02T14:00:18.071Z,74.25
2023-04-02T14:02:51.198Z,74.22
2023-04-02T14:05:41.183Z,73.95
2023-04-02T14:08:17.595Z,73.85
2023-04-02T14:11:23.432Z,74.15
2023-04-02T14:14:02.260Z,73.97
2023-04-02T14:16:31.768Z,73.85
2023-04-02T14:19:22.011Z,73.03
2023-04-02T14:22:01.082Z,73.94
2023-04-02T14:25:03.201Z,74.26
2023-04-02T14:27:50.876Z,73.71
2023-04-02T14:30:23.500Z,74.64
2023-04-02T14:33:14.105Z,73.28
2023-04-02T14:35:46.444Z,72.56
2023-04-02T14:38:22.572Z,72.35
2023-04-02T14:41:24.500Z,72.63
2023-04-02T14:43:51.265Z,73.35
2023-04-02T14:46:17.916Z,74.27
2023-04-02T14:48:54.482Z,74.29
2023-04-02T14:51:36.446Z,74.23
2023-04-02T14:54:10.862Z,74.57
2023-04-02T14:56:53.996Z,74.47
2023-04-02T14:59:43.858Z,73.10
2023-04-02T15:02:22.670Z,72.66
2023-04-02T15:05:15.686Z,72.92
2023-04-02T15:07:58.060Z,71.70
2023-04-02T15:10:34.650Z,71.71
2023-04-02T15:13:08.866Z,70.91
2023-04-02T15:16:03.579Z,70.08
2023-04-02T15:18:30.224Z,69.56
2023-04-02T15:21:10.978Z,68.16
2023-04-02T15:23:52.586Z,67.02
2023-04-02T15:26:27.246Z,62.51
2023-04-02T15:29:28.814Z,64.09
2023-04-02T15:32:04.336Z,66.02
2023-04-02T15:34:36.807Z,65.56
2023-04-02T15:37:25.197Z,67.26
2023-04-02T15:39:58.126Z,67.27
2023-04-02T15:42:36.764Z,67.84
2023-04-02T15:45:12.500Z,68.55
2023-04-02T15:47:51.163Z,69.55
2023-04-02T15:50:51.664Z,70.01
2023-04-02T15:53:23.919Z,70.07
2023-04-02T15:56:06.673Z,70.26
2023-04-02T15:58:38.434Z,69.35
2023-04-02T16:01:28.410Z,68.40
2023-04-02T16:04:16.913Z,68.79
2023-04-02T16:07:19.264Z,68.97
2023-04-02T16:10:18.003Z,69.17
2023-04-02T16:12:50.659Z,69.15
2023-04-02T16:15:43.653Z,69.02
2023-04-02T16:18:24.774Z,69.41
2023-04-02T16:20:53.214Z,69.75
2023-04-02T16:23:31.516Z,69.41
2023-04-02T16:26:07.750Z,69.34
2023-04-02T16:28:39.668Z,68.56
2023-04-02T16:31:15.639Z,66.87
2023-04-02T16:33:45.446Z,65.61
2023-04-02T16:36:26.243Z,64.28
2023-04-02T16:38:59.185Z,64.68
2023-04-02T16:41:44.558Z,63.69
2023-04-02T16:44:28.178Z,63.32
2023-04-02T16:47:04.164Z,62.42
2023-04-02T16:50:02.076Z,62.21
2023-04-02T16:52:42.183Z,63.93
2023-04-02T16:55:30.273Z,62.88
2023-04-02T16:58:02.735Z,64.37
2023-04-02T17:00:37.117Z,65.44
2023-04-02T17:03:28.512Z,66.09
2023-04-02T17:06:22.219Z,66.81
2023-04-02T17:09:23.219Z,67.66
2023-04-02T17:12:12.409Z,67.64
2023-04-02T17:14:56.096Z,67.76
2023-04-02T17:17:26.956Z,67.86
2023-04-02T17:19:57.828Z,67.88
2023-04-02T17:22:24.526Z,68.22
2023-04-02T17:24:57.835Z,68.19
2023-04-02T17:27:39.766Z,68.51
2023-04-02T17:30:12.306Z,68.65
2023-04-02T17:32:38.914Z,68.31
2023-04-02T17:35:36.223Z,68.83
2023-04-02T17:38:17.734Z,68.75
2023-04-02T17:41:16.112Z,68.85
2023-04-02T17:44:22.092Z,68.87
2023-04-02T17:47:17.758Z,68.97
2023-04-02T17:49:52.914Z,68.90
2023-04-02T17:52:38.339Z,68.80
2023-04-02T17:59:01.201Z,68.26
2023-04-02T18:02:03.589Z,68.57
2023-04-02T18:04:48.242Z,68.76
2023-04-02T18:07:24.663Z,68.44
2023-04-02T18:10:31.526Z,68.18
2023-04-02T18:13:02.469Z,68.00
2023-04-02T18:15:41.024Z,68.16
2023-04-02T18:18:19.977Z,68.00
2023-04-02T18:21:08.331Z,68.09
2023-04-02T18:23:54.822Z,68.14
2023-04-02T18:26:39.237Z,68.40
2023-04-02T18:29:28.889Z,68.54
2023-04-02T18:32:20.129Z,68.11
2023-04-02T18:35:05.726Z,68.27
2023-04-02T18:37:37.383Z,68.44
2023-04-02T18:40:32.025Z,68.36
2023-04-02T18:43:29.160Z,68.50
2023-04-02T18:46:10.762Z,68.51
2023-04-02T18:48:41.228Z,68.43
2023-04-02T18:51:24.642Z,68.77
2023-04-02T18:53:56.234Z,68.59
2023-04-02T18:56:24.624Z,68.63
2023-04-02T18:59:22.253Z,68.87
2023-04-02T19:01:53.908Z,68.74
2023-04-02T19:04:29.704Z,68.53
2023-04-02T19:07:14.431Z,68.93
2023-04-02T19:09:49.055Z,68.83
2023-04-02T19:12:23.775Z,69.35
2023-04-02T19:14:51.930Z,69.23
2023-04-02T19:17:34.315Z,69.27
2023-04-02T19:20:24.708Z,69.80
2023-04-02T19:23:09.625Z,70.16
2023-04-02T19:25:41.970Z,70.26
2023-04-02T19:28:20.107Z,70.54
2023-04-02T19:30:59.434Z,70.87
2023-04-02T19:33:32.153Z,70.92
2023-04-02T19:36:23.692Z,71.37
2023-04-02T19:39:15.586Z,71.40
2023-04-02T19:42:01.202Z,71.99
2023-04-02T19:44:27.927Z,72.14
2023-04-02T19:46:54.701Z,72.24
2023-04-02T19:49:28.463Z,72.58
2023-04-02T19:51:55.990Z,72.86
2023-04-02T19:54:23.193Z,72.76
2023-04-02T19:56:52.409Z,72.82
2023-04-02T19:59:19.144Z,72.85
2023-04-02T20:01:46.690Z,72.72
2023-04-02T20:04:14.281Z,72.72
2023-04-02T20:06:41.184Z,73.02
2023-04-02T20:09:08.864Z,73.20
2023-04-02T20:11:37.552Z,73.28
2023-04-02T20:14:05.592Z,72.97
2023-04-02T20:16:33.043Z,73.09
2023-04-02T20:18:59.991Z,73.31
2023-04-02T20:21:27.685Z,73.30
2023-04-02T20:23:55.271Z,73.45
2023-04-02T20:26:22.817Z,73.70
2023-04-02T20:28:49.586Z,73.92
2023-04-02T20:31:18.385Z,74.34
2023-04-02T20:33:45.546Z,74.14
2023-04-02T20:36:14.923Z,74.18
2023-04-02T20:38:41.762Z,74.44
2023-04-02T20:41:09.195Z,74.56
2023-04-02T20:43:37.614Z,74.56
2023-04-02T20:46:06.769Z,74.77
2023-04-02T20:48:35.346Z,74.76
2023-04-02T20:51:04.351Z,74.91
2023-04-02T20:53:34.696Z,75.03
2023-04-02T20:56:06.569Z,74.80
2023-04-02T20:58:34.626Z,75.08
2023-04-02T21:01:15.761Z,75.59
2023-04-02T21:03:42.568Z,76.24
2023-04-02T21:06:17.349Z,76.62
2023-04-02T21:08:44.811Z,76.90
2023-04-02T21:11:11.741Z,77.35
2023-04-02T21:13:38.916Z,77.51
2023-04-02T21:16:12.849Z,78.37
2023-04-02T21:18:39.469Z,78.97
2023-04-02T21:21:07.070Z,79.29
2023-04-02T21:23:34.178Z,79.86
2023-04-02T21:26:06.499Z,80.35
2023-04-02T21:28:34.455Z,80.25
2023-04-02T21:31:05.312Z,80.16
2023-04-02T21:33:36.521Z,80.20
2023-04-02T21:36:07.607Z,80.28
2023-04-02T21:38:34.564Z,80.46
2023-04-02T21:41:15.877Z,80.78
2023-04-02T21:43:43.653Z,81.58
2023-04-02T21:46:10.586Z,81.58
2023-04-02T21:48:37.210Z,81.68
2023-04-02T21:51:12.478Z,82.05
2023-04-02T21:53:41.592Z,82.27
2023-04-02T21:56:20.683Z,82.45
2023-04-02T21:58:47.782Z,83.13
2023-04-02T22:01:26.498Z,83.15
2023-04-02T22:03:55.431Z,83.00
2023-04-02T22:06:22.714Z,83.23
2023-04-02T22:08:54.585Z,83.07
2023-04-02T22:11:24.532Z,83.02
2023-04-02T22:13:51.306Z,82.86
2023-04-02T22:16:23.866Z,83.09
2023-04-02T22:18:52.328Z,82.77
2023-04-02T22:21:19.987Z,82.58
2023-04-02T22:23:47.889Z,82.89
2023-04-02T22:26:16.085Z,82.99
2023-04-02T22:28:42.807Z,83.23
2023-04-02T22:31:13.031Z,83.08
2023-04-02T22:33:40.546Z,83.35
2023-04-02T22:36:08.079Z,83.65
2023-04-02T22:38:34.749Z,83.69
2023-04-02T22:41:05.111Z,84.24
2023-04-02T22:43:31.888Z,84.40
2023-04-02T22:45:58.540Z,84.38
2023-04-02T22:48:25.194Z,84.12
2023-04-02T22:50:52.941Z,84.29
2023-04-02T22:53:21.349Z,84.91
2023-04-02T22:55:48.103Z,84.68
2023-04-02T22:58:14.782Z,84.69
2023-04-02T23:00:42.041Z,84.85
2023-04-02T23:03:21.224Z,84.98
2023-04-02T23:05:58.879Z,84.69
2023-04-02T23:08:25.742Z,84.53
2023-04-02T23:10:52.564Z,84.45
2023-04-02T23:13:19.208Z,84.42
2023-04-02T23:15:45.859Z,84.38
2023-04-02T23:18:12.524Z,84.30
2023-04-02T23:20:42.466Z,84.49
2023-04-02T23:23:09.460Z,84.49
2023-04-02T23:25:38.472Z,84.75
2023-04-02T23:28:05.148Z,84.96
2023-04-02T23:30:31.782Z,84.74
2023-04-02T23:32:58.373Z,84.93
2023-04-02T23:35:25.034Z,84.96
2023-04-02T23:37:51.603Z,84.48
2023-04-02T23:40:18.416Z,84.84
2023-04-02T23:42:44.976Z,84.72
2023-04-02T23:45:11.673Z,84.74
2023-04-02T23:47:38.300Z,84.73
2023-04-02T23:50:05.314Z,84.97
2023-04-02T23:52:31.954Z,85.01
2023-04-02T23:54:58.545Z,85.25
